Aérodrome :
LOGIN :

S'inscrire | Disclaimer

   EN    FR    IT 

 










Légende :    VFR   VFR Marginal   IFR   IFR Intensif   IFR Très Intensif
Visi : 
Plafond : 
>= 8 km
>= 3000ft
5 à 8 km
1000 à 3000 ft
1500m à 5 km
500 à 1000 ft
800 à 1500m
200 à 500 ft
< 800m
< 200 ft
Symboles :   Orages  Brouillard  Fortes neiges  Fortes précipitations  Vent > 20 kt
SIGMETs :   Divers  Orages  Givrage  Turbulence  Onde Orograph.  Cendres Volcan.






- Altitude de l'aérodrome : 26 ft
- Code IATA : BIA


LFKB - Bastia

DERNIER METAR :
  • 240830Z AUTO 13006KT 090V160 CAVOK 25/18 Q1018 BECMG 14015G25KT

METARs EXPIRÉS :
  • 240800Z AUTO 17004KT 130V210 CAVOK 24/15 Q1018 BECMG 14015KT
  • 240730Z AUTO 20005KT 170V230 CAVOK 23/14 Q1018 BECMG 14015KT
  • 240700Z AUTO 20006KT CAVOK 21/13 Q1018 NOSIG
  • 240630Z AUTO 20003KT 170V230 CAVOK 19/13 Q1018 NOSIG
  • 240600Z AUTO 20005KT CAVOK 18/13 Q1018 NOSIG
  • 240530Z AUTO 21005KT CAVOK 17/12 Q1018 NOSIG

TAF TAF LFKB
Valide du 24 à 09h jusqu'au 25 à 09h UTC


240800Z 2409/2509 20004KT CAVOK TX27/2411Z TN18/2505Z
BECMG 2409/2411 14015G25KT
BECMG 2418/2420 24004KT
BECMG 2500/2502 BKN020
BECMG 2508/2509 14015G25KT
ATIS : +33 4 95 59 19 40



MET'MAP, la Météo Aéronautique d'un coup d'oeil ! - Copyright ORBIFLY Décembre 2007 - Disclaimer

ORBIFLY MET'MAP TEAM :

Programmation & Développement : Alexandra Zaïnal
Sur une idée originale de : Baudouin d'Aumeries
Assistance à la programmation : Marc-Olivier Méhu
Soutien technique & logistique : Manuel Goepfert

Contact : metmap@orbifly.com




SOURCES & CREDITS :

   NOAA